Terminal Aerodrome Forecast
Issued by NWS

Home | Current Version | Previous Version | Text Only | Print | Product List | Glossary On
Versions: 1 2 3 4 5 6 7 8 9 10 11 12 13 14 15 16 17 18 19 20
281
FTUS41 KBGM 092338
TAFRME
TAF
KRME 092338Z 1000/1024 11003KT 1 1/2SM -SN OVC015
     FM100600 VRB03KT P6SM BKN025 OVC050
     FM101400 23005KT 2SM -SN OVC015=

USA.gov is the U.S. government's official web portal to all federal, state and local government web resources and services.